sensor_id;sensor_type;location;lat;lon;timestamp;temperature;humidity
7163;DHT22;3623;47.098;15.446;2022-10-30T00:00:41;12.50;99.90
7163;DHT22;3623;47.098;15.446;2022-10-30T00:03:14;12.50;99.90
7163;DHT22;3623;47.098;15.446;2022-10-30T00:05:42;12.50;99.90
7163;DHT22;3623;47.098;15.446;2022-10-30T00:08:10;12.60;99.90
7163;DHT22;3623;47.098;15.446;2022-10-30T00:10:39;12.60;99.90
7163;DHT22;3623;47.098;15.446;2022-10-30T00:13:07;12.60;99.90
7163;DHT22;3623;47.098;15.446;2022-10-30T00:15:37;12.60;99.90
7163;DHT22;3623;47.098;15.446;2022-10-30T00:18:08;12.60;99.90
7163;DHT22;3623;47.098;15.446;2022-10-30T00:20:36;12.70;99.90
7163;DHT22;3623;47.098;15.446;2022-10-30T00:23:06;12.70;99.90
7163;DHT22;3623;47.098;15.446;2022-10-30T00:25:34;12.70;99.90
7163;DHT22;3623;47.098;15.446;2022-10-30T00:28:02;12.90;99.90
7163;DHT22;3623;47.098;15.446;2022-10-30T00:30:29;12.80;99.90
7163;DHT22;3623;47.098;15.446;2022-10-30T00:32:56;12.70;99.90
7163;DHT22;3623;47.098;15.446;2022-10-30T00:35:25;12.80;99.90
7163;DHT22;3623;47.098;15.446;2022-10-30T00:37:52;13.00;99.90
7163;DHT22;3623;47.098;15.446;2022-10-30T00:40:23;12.80;99.90
7163;DHT22;3623;47.098;15.446;2022-10-30T00:42:50;12.80;99.90
7163;DHT22;3623;47.098;15.446;2022-10-30T00:45:17;12.80;99.90
7163;DHT22;3623;47.098;15.446;2022-10-30T00:47:49;12.80;99.90
7163;DHT22;3623;47.098;15.446;2022-10-30T00:50:21;12.80;99.90
7163;DHT22;3623;47.098;15.446;2022-10-30T00:52:54;12.80;99.90
7163;DHT22;3623;47.098;15.446;2022-10-30T00:55:25;12.90;99.90
7163;DHT22;3623;47.098;15.446;2022-10-30T00:57:53;12.80;99.90
7163;DHT22;3623;47.098;15.446;2022-10-30T01:00:22;12.70;99.90
7163;DHT22;3623;47.098;15.446;2022-10-30T01:02:52;12.70;99.90
7163;DHT22;3623;47.098;15.446;2022-10-30T01:05:21;12.70;99.90
7163;DHT22;3623;47.098;15.446;2022-10-30T01:07:51;12.70;99.90
7163;DHT22;3623;47.098;15.446;2022-10-30T01:10:18;12.80;99.90
7163;DHT22;3623;47.098;15.446;2022-10-30T01:12:47;12.80;99.90
7163;DHT22;3623;47.098;15.446;2022-10-30T01:15:18;12.90;99.90
7163;DHT22;3623;47.098;15.446;2022-10-30T01:18:12;12.90;99.90
7163;DHT22;3623;47.098;15.446;2022-10-30T01:20:54;13.10;99.90
7163;DHT22;3623;47.098;15.446;2022-10-30T01:23:35;12.90;99.90
7163;DHT22;3623;47.098;15.446;2022-10-30T01:26:13;13.00;99.90
7163;DHT22;3623;47.098;15.446;2022-10-30T01:28:54;13.00;99.90
7163;DHT22;3623;47.098;15.446;2022-10-30T01:31:37;13.00;99.90
7163;DHT22;3623;47.098;15.446;2022-10-30T01:34:16;13.00;99.90
7163;DHT22;3623;47.098;15.446;2022-10-30T01:36:48;13.00;99.90
7163;DHT22;3623;47.098;15.446;2022-10-30T01:39:22;13.10;99.90
7163;DHT22;3623;47.098;15.446;2022-10-30T01:41:50;13.20;99.90
7163;DHT22;3623;47.098;15.446;2022-10-30T01:44:22;13.20;99.90
7163;DHT22;3623;47.098;15.446;2022-10-30T01:47:02;13.10;99.90
7163;DHT22;3623;47.098;15.446;2022-10-30T01:50:02;13.10;99.90
7163;DHT22;3623;47.098;15.446;2022-10-30T01:52:37;13.00;99.90
7163;DHT22;3623;47.098;15.446;2022-10-30T01:55:15;12.90;99.90
7163;DHT22;3623;47.098;15.446;2022-10-30T01:57:50;13.00;99.90
7163;DHT22;3623;47.098;15.446;2022-10-30T02:00:20;12.90;99.90
7163;DHT22;3623;47.098;15.446;2022-10-30T02:02:47;12.90;99.90
7163;DHT22;3623;47.098;15.446;2022-10-30T02:05:20;12.90;99.90
7163;DHT22;3623;47.098;15.446;2022-10-30T02:07:51;12.90;99.90
7163;DHT22;3623;47.098;15.446;2022-10-30T02:10:20;12.90;99.90
7163;DHT22;3623;47.098;15.446;2022-10-30T02:12:47;12.90;99.90
7163;DHT22;3623;47.098;15.446;2022-10-30T02:15:15;12.90;99.90
7163;DHT22;3623;47.098;15.446;2022-10-30T02:17:43;12.80;99.90
7163;DHT22;3623;47.098;15.446;2022-10-30T02:20:16;12.80;99.90
7163;DHT22;3623;47.098;15.446;2022-10-30T02:22:46;12.70;99.90
7163;DHT22;3623;47.098;15.446;2022-10-30T02:25:14;12.70;99.90
7163;DHT22;3623;47.098;15.446;2022-10-30T02:27:41;12.70;99.90
7163;DHT22;3623;47.098;15.446;2022-10-30T02:30:09;12.70;99.90
7163;DHT22;3623;47.098;15.446;2022-10-30T02:32:37;12.70;99.90
7163;DHT22;3623;47.098;15.446;2022-10-30T02:35:13;12.70;99.90
7163;DHT22;3623;47.098;15.446;2022-10-30T02:37:41;12.70;99.90
7163;DHT22;3623;47.098;15.446;2022-10-30T02:40:09;12.60;99.90
7163;DHT22;3623;47.098;15.446;2022-10-30T02:42:37;12.60;99.90
7163;DHT22;3623;47.098;15.446;2022-10-30T02:45:04;12.50;99.90
7163;DHT22;3623;47.098;15.446;2022-10-30T02:47:31;12.50;99.90
7163;DHT22;3623;47.098;15.446;2022-10-30T02:50:04;12.40;99.90
7163;DHT22;3623;47.098;15.446;2022-10-30T02:52:31;12.40;99.90
7163;DHT22;3623;47.098;15.446;2022-10-30T02:55:00;12.40;99.90
7163;DHT22;3623;47.098;15.446;2022-10-30T02:57:27;12.30;99.90
7163;DHT22;3623;47.098;15.446;2022-10-30T02:59:54;12.30;99.90
7163;DHT22;3623;47.098;15.446;2022-10-30T03:02:23;12.30;99.90
7163;DHT22;3623;47.098;15.446;2022-10-30T03:04:50;12.30;99.90
7163;DHT22;3623;47.098;15.446;2022-10-30T03:07:17;12.30;99.90
7163;DHT22;3623;47.098;15.446;2022-10-30T03:09:45;12.30;99.90
7163;DHT22;3623;47.098;15.446;2022-10-30T03:12:14;12.30;99.90
7163;DHT22;3623;47.098;15.446;2022-10-30T03:14:43;12.30;99.90
7163;DHT22;3623;47.098;15.446;2022-10-30T03:17:14;12.30;99.90
7163;DHT22;3623;47.098;15.446;2022-10-30T03:19:41;12.30;99.90
7163;DHT22;3623;47.098;15.446;2022-10-30T03:22:08;12.30;99.90
7163;DHT22;3623;47.098;15.446;2022-10-30T03:24:35;12.40;99.90
7163;DHT22;3623;47.098;15.446;2022-10-30T03:27:02;12.40;99.90
7163;DHT22;3623;47.098;15.446;2022-10-30T03:29:31;12.40;99.90
7163;DHT22;3623;47.098;15.446;2022-10-30T03:31:58;12.30;99.90
7163;DHT22;3623;47.098;15.446;2022-10-30T03:34:26;12.30;99.90
7163;DHT22;3623;47.098;15.446;2022-10-30T03:36:53;12.30;99.90
7163;DHT22;3623;47.098;15.446;2022-10-30T03:39:20;12.30;99.90
7163;DHT22;3623;47.098;15.446;2022-10-30T03:41:47;12.20;99.90
7163;DHT22;3623;47.098;15.446;2022-10-30T03:44:18;12.20;99.90
7163;DHT22;3623;47.098;15.446;2022-10-30T03:46:46;12.20;99.90
7163;DHT22;3623;47.098;15.446;2022-10-30T03:49:16;12.30;99.90
7163;DHT22;3623;47.098;15.446;2022-10-30T03:51:46;12.30;99.90
7163;DHT22;3623;47.098;15.446;2022-10-30T03:54:13;12.30;99.90
7163;DHT22;3623;47.098;15.446;2022-10-30T03:56:40;12.20;99.90
7163;DHT22;3623;47.098;15.446;2022-10-30T03:59:07;12.20;99.90
7163;DHT22;3623;47.098;15.446;2022-10-30T04:01:34;12.20;99.90
7163;DHT22;3623;47.098;15.446;2022-10-30T04:04:05;12.20;99.90
7163;DHT22;3623;47.098;15.446;2022-10-30T04:06:32;12.20;99.90
7163;DHT22;3623;47.098;15.446;2022-10-30T04:09:01;12.20;99.90
7163;DHT22;3623;47.098;15.446;2022-10-30T04:11:28;12.10;99.90
7163;DHT22;3623;47.098;15.446;2022-10-30T04:13:55;12.10;99.90
7163;DHT22;3623;47.098;15.446;2022-10-30T04:16:22;12.20;99.90
7163;DHT22;3623;47.098;15.446;2022-10-30T04:18:52;12.20;99.90
7163;DHT22;3623;47.098;15.446;2022-10-30T04:21:21;12.30;99.90
7163;DHT22;3623;47.098;15.446;2022-10-30T04:23:50;12.30;99.90
7163;DHT22;3623;47.098;15.446;2022-10-30T04:26:20;12.30;99.90
7163;DHT22;3623;47.098;15.446;2022-10-30T04:28:47;12.30;99.90
7163;DHT22;3623;47.098;15.446;2022-10-30T04:31:14;12.30;99.90
7163;DHT22;3623;47.098;15.446;2022-10-30T04:33:41;12.20;99.90
7163;DHT22;3623;47.098;15.446;2022-10-30T04:36:09;12.30;99.90
7163;DHT22;3623;47.098;15.446;2022-10-30T04:38:37;12.20;99.90
7163;DHT22;3623;47.098;15.446;2022-10-30T04:41:04;12.20;99.90
7163;DHT22;3623;47.098;15.446;2022-10-30T04:43:31;12.20;99.90
7163;DHT22;3623;47.098;15.446;2022-10-30T04:45:58;12.20;99.90
7163;DHT22;3623;47.098;15.446;2022-10-30T04:48:25;12.20;99.90
7163;DHT22;3623;47.098;15.446;2022-10-30T04:50:57;12.20;99.90
7163;DHT22;3623;47.098;15.446;2022-10-30T04:53:25;12.30;99.90
7163;DHT22;3623;47.098;15.446;2022-10-30T04:55:55;12.30;99.90
7163;DHT22;3623;47.098;15.446;2022-10-30T04:58:26;12.30;99.90
7163;DHT22;3623;47.098;15.446;2022-10-30T05:00:53;12.30;99.90
7163;DHT22;3623;47.098;15.446;2022-10-30T05:03:22;12.20;99.90
7163;DHT22;3623;47.098;15.446;2022-10-30T05:05:55;12.20;99.90
7163;DHT22;3623;47.098;15.446;2022-10-30T05:08:23;12.10;99.90
7163;DHT22;3623;47.098;15.446;2022-10-30T05:10:53;12.10;99.90
7163;DHT22;3623;47.098;15.446;2022-10-30T05:13:21;12.10;99.90
7163;DHT22;3623;47.098;15.446;2022-10-30T05:15:53;12.10;99.90
7163;DHT22;3623;47.098;15.446;2022-10-30T05:18:21;12.10;99.90
7163;DHT22;3623;47.098;15.446;2022-10-30T05:20:50;12.00;99.90
7163;DHT22;3623;47.098;15.446;2022-10-30T05:23:17;12.00;99.90
7163;DHT22;3623;47.098;15.446;2022-10-30T05:25:44;11.90;99.90
7163;DHT22;3623;47.098;15.446;2022-10-30T05:28:26;11.90;99.90
7163;DHT22;3623;47.098;15.446;2022-10-30T05:30:53;12.00;99.90
7163;DHT22;3623;47.098;15.446;2022-10-30T05:33:20;11.80;99.90
7163;DHT22;3623;47.098;15.446;2022-10-30T05:35:50;12.00;99.90
7163;DHT22;3623;47.098;15.446;2022-10-30T05:38:17;11.90;99.90
7163;DHT22;3623;47.098;15.446;2022-10-30T05:40:45;11.80;99.90
7163;DHT22;3623;47.098;15.446;2022-10-30T05:43:23;11.90;99.90
7163;DHT22;3623;47.098;15.446;2022-10-30T05:45:51;11.90;99.90
7163;DHT22;3623;47.098;15.446;2022-10-30T05:48:18;11.90;99.90
7163;DHT22;3623;47.098;15.446;2022-10-30T05:50:48;11.90;99.90
7163;DHT22;3623;47.098;15.446;2022-10-30T05:53:21;12.00;99.90
7163;DHT22;3623;47.098;15.446;2022-10-30T05:55:55;12.10;99.90
7163;DHT22;3623;47.098;15.446;2022-10-30T05:58:22;11.90;99.90
7163;DHT22;3623;47.098;15.446;2022-10-30T06:00:51;11.90;99.90
7163;DHT22;3623;47.098;15.446;2022-10-30T06:03:21;11.90;99.90
7163;DHT22;3623;47.098;15.446;2022-10-30T06:05:48;11.90;99.90
7163;DHT22;3623;47.098;15.446;2022-10-30T06:08:15;11.90;99.90
7163;DHT22;3623;47.098;15.446;2022-10-30T06:10:43;12.00;99.90
7163;DHT22;3623;47.098;15.446;2022-10-30T06:13:10;11.90;99.90
7163;DHT22;3623;47.098;15.446;2022-10-30T06:15:37;11.90;99.90
7163;DHT22;3623;47.098;15.446;2022-10-30T06:18:07;12.00;99.90
7163;DHT22;3623;47.098;15.446;2022-10-30T06:20:35;12.00;99.90
7163;DHT22;3623;47.098;15.446;2022-10-30T06:23:06;12.00;99.90
7163;DHT22;3623;47.098;15.446;2022-10-30T06:25:34;12.00;99.90
7163;DHT22;3623;47.098;15.446;2022-10-30T06:28:02;12.10;99.90
7163;DHT22;3623;47.098;15.446;2022-10-30T06:30:29;12.10;99.90
7163;DHT22;3623;47.098;15.446;2022-10-30T06:32:58;12.30;99.90
7163;DHT22;3623;47.098;15.446;2022-10-30T06:35:29;12.30;99.90
7163;DHT22;3623;47.098;15.446;2022-10-30T06:37:57;12.30;99.90
7163;DHT22;3623;47.098;15.446;2022-10-30T06:40:25;12.40;99.90
7163;DHT22;3623;47.098;15.446;2022-10-30T06:42:54;12.50;99.90
7163;DHT22;3623;47.098;15.446;2022-10-30T06:45:23;12.60;99.90
7163;DHT22;3623;47.098;15.446;2022-10-30T06:47:50;12.60;99.90
7163;DHT22;3623;47.098;15.446;2022-10-30T06:50:19;12.70;99.90
7163;DHT22;3623;47.098;15.446;2022-10-30T06:52:53;12.70;99.90
7163;DHT22;3623;47.098;15.446;2022-10-30T06:55:25;12.90;99.90
7163;DHT22;3623;47.098;15.446;2022-10-30T06:57:53;12.80;99.90
7163;DHT22;3623;47.098;15.446;2022-10-30T07:00:20;12.80;99.90
7163;DHT22;3623;47.098;15.446;2022-10-30T07:02:57;12.90;99.90
7163;DHT22;3623;47.098;15.446;2022-10-30T07:05:24;12.90;99.90
7163;DHT22;3623;47.098;15.446;2022-10-30T07:07:55;13.00;99.90
7163;DHT22;3623;47.098;15.446;2022-10-30T07:10:22;13.10;99.90
7163;DHT22;3623;47.098;15.446;2022-10-30T07:12:53;13.30;99.90
7163;DHT22;3623;47.098;15.446;2022-10-30T07:15:21;13.20;99.90
7163;DHT22;3623;47.098;15.446;2022-10-30T07:17:53;13.30;99.90
7163;DHT22;3623;47.098;15.446;2022-10-30T07:20:23;13.30;99.90
7163;DHT22;3623;47.098;15.446;2022-10-30T07:22:50;13.30;99.90
7163;DHT22;3623;47.098;15.446;2022-10-30T07:25:24;13.50;99.90
7163;DHT22;3623;47.098;15.446;2022-10-30T07:27:52;13.50;99.90
7163;DHT22;3623;47.098;15.446;2022-10-30T07:30:25;13.60;99.90
7163;DHT22;3623;47.098;15.446;2022-10-30T07:32:56;13.60;99.90
7163;DHT22;3623;47.098;15.446;2022-10-30T07:35:23;13.60;99.90
7163;DHT22;3623;47.098;15.446;2022-10-30T07:37:51;13.70;99.90
7163;DHT22;3623;47.098;15.446;2022-10-30T07:40:22;13.80;99.90
7163;DHT22;3623;47.098;15.446;2022-10-30T07:42:54;13.80;99.90
7163;DHT22;3623;47.098;15.446;2022-10-30T07:45:25;13.90;99.90
7163;DHT22;3623;47.098;15.446;2022-10-30T07:47:53;14.00;99.90
7163;DHT22;3623;47.098;15.446;2022-10-30T07:50:20;13.90;99.90
7163;DHT22;3623;47.098;15.446;2022-10-30T07:52:48;14.00;99.90
7163;DHT22;3623;47.098;15.446;2022-10-30T07:55:18;14.00;99.90
7163;DHT22;3623;47.098;15.446;2022-10-30T07:58:06;14.10;99.90
7163;DHT22;3623;47.098;15.446;2022-10-30T08:00:33;14.20;99.90
7163;DHT22;3623;47.098;15.446;2022-10-30T08:03:00;14.30;99.90
7163;DHT22;3623;47.098;15.446;2022-10-30T08:05:30;14.40;99.90
7163;DHT22;3623;47.098;15.446;2022-10-30T08:07:57;14.50;99.90
7163;DHT22;3623;47.098;15.446;2022-10-30T08:10:27;14.60;99.90
7163;DHT22;3623;47.098;15.446;2022-10-30T08:12:57;14.70;99.90
7163;DHT22;3623;47.098;15.446;2022-10-30T08:15:25;14.90;99.90
7163;DHT22;3623;47.098;15.446;2022-10-30T08:17:53;15.10;99.90
7163;DHT22;3623;47.098;15.446;2022-10-30T08:20:32;15.20;99.90
7163;DHT22;3623;47.098;15.446;2022-10-30T08:22:59;15.50;99.90
7163;DHT22;3623;47.098;15.446;2022-10-30T08:25:29;15.60;99.90
7163;DHT22;3623;47.098;15.446;2022-10-30T08:28:01;15.70;99.90
7163;DHT22;3623;47.098;15.446;2022-10-30T08:30:32;15.80;99.90
7163;DHT22;3623;47.098;15.446;2022-10-30T08:33:02;15.90;99.90
7163;DHT22;3623;47.098;15.446;2022-10-30T08:35:29;16.00;99.90
7163;DHT22;3623;47.098;15.446;2022-10-30T08:37:57;16.10;99.90
7163;DHT22;3623;47.098;15.446;2022-10-30T08:40:28;16.10;99.90
7163;DHT22;3623;47.098;15.446;2022-10-30T08:42:57;16.20;99.90
7163;DHT22;3623;47.098;15.446;2022-10-30T08:45:24;16.10;99.90
7163;DHT22;3623;47.098;15.446;2022-10-30T08:48:02;16.20;99.90
7163;DHT22;3623;47.098;15.446;2022-10-30T08:50:30;16.30;99.90
7163;DHT22;3623;47.098;15.446;2022-10-30T08:53:01;16.60;99.90
7163;DHT22;3623;47.098;15.446;2022-10-30T08:55:34;16.90;99.90
7163;DHT22;3623;47.098;15.446;2022-10-30T08:58:04;17.00;99.90
7163;DHT22;3623;47.098;15.446;2022-10-30T09:00:34;17.00;99.90
7163;DHT22;3623;47.098;15.446;2022-10-30T09:03:05;17.00;99.90
7163;DHT22;3623;47.098;15.446;2022-10-30T09:05:32;17.20;99.90
7163;DHT22;3623;47.098;15.446;2022-10-30T09:08:03;17.40;99.90
7163;DHT22;3623;47.098;15.446;2022-10-30T09:10:34;17.20;99.90
7163;DHT22;3623;47.098;15.446;2022-10-30T09:13:04;17.20;99.90
7163;DHT22;3623;47.098;15.446;2022-10-30T09:15:34;17.20;99.90
7163;DHT22;3623;47.098;15.446;2022-10-30T09:18:02;17.30;99.90
7163;DHT22;3623;47.098;15.446;2022-10-30T09:20:34;17.40;99.90
7163;DHT22;3623;47.098;15.446;2022-10-30T09:23:12;17.50;99.90
7163;DHT22;3623;47.098;15.446;2022-10-30T09:25:42;17.50;99.90
7163;DHT22;3623;47.098;15.446;2022-10-30T09:28:20;16.50;99.90
7163;DHT22;3623;47.098;15.446;2022-10-30T09:31:09;18.00;99.90
7163;DHT22;3623;47.098;15.446;2022-10-30T09:33:55;18.10;99.90
7163;DHT22;3623;47.098;15.446;2022-10-30T09:36:27;19.60;99.90
7163;DHT22;3623;47.098;15.446;2022-10-30T09:39:06;18.20;99.90
7163;DHT22;3623;47.098;15.446;2022-10-30T09:41:57;18.10;99.90
7163;DHT22;3623;47.098;15.446;2022-10-30T09:44:36;18.30;99.90
7163;DHT22;3623;47.098;15.446;2022-10-30T09:47:15;18.50;99.90
7163;DHT22;3623;47.098;15.446;2022-10-30T09:50:02;18.40;99.90
7163;DHT22;3623;47.098;15.446;2022-10-30T09:52:40;18.50;99.90
7163;DHT22;3623;47.098;15.446;2022-10-30T09:55:28;18.60;99.90
7163;DHT22;3623;47.098;15.446;2022-10-30T09:58:05;19.00;99.90
7163;DHT22;3623;47.098;15.446;2022-10-30T10:00:37;18.80;99.90
7163;DHT22;3623;47.098;15.446;2022-10-30T10:05:58;19.10;99.90
7163;DHT22;3623;47.098;15.446;2022-10-30T10:08:31;19.50;99.90
7163;DHT22;3623;47.098;15.446;2022-10-30T10:11:02;19.70;99.90
7163;DHT22;3623;47.098;15.446;2022-10-30T10:13:36;19.90;99.90
7163;DHT22;3623;47.098;15.446;2022-10-30T10:16:13;20.00;99.90
7163;DHT22;3623;47.098;15.446;2022-10-30T10:19:03;20.20;99.90
7163;DHT22;3623;47.098;15.446;2022-10-30T10:21:36;21.00;99.90
7163;DHT22;3623;47.098;15.446;2022-10-30T10:24:14;21.00;99.90
7163;DHT22;3623;47.098;15.446;2022-10-30T10:26:47;21.40;99.90
7163;DHT22;3623;47.098;15.446;2022-10-30T10:29:32;21.90;99.90
7163;DHT22;3623;47.098;15.446;2022-10-30T10:35:22;23.00;99.90
7163;DHT22;3623;47.098;15.446;2022-10-30T10:37:57;23.70;99.90
7163;DHT22;3623;47.098;15.446;2022-10-30T10:40:39;24.10;99.90
7163;DHT22;3623;47.098;15.446;2022-10-30T10:43:16;24.50;99.90
7163;DHT22;3623;47.098;15.446;2022-10-30T10:45:52;24.90;99.90
7163;DHT22;3623;47.098;15.446;2022-10-30T10:48:51;24.80;99.90
7163;DHT22;3623;47.098;15.446;2022-10-30T10:51:23;25.50;99.90
7163;DHT22;3623;47.098;15.446;2022-10-30T10:54:00;25.70;99.90
7163;DHT22;3623;47.098;15.446;2022-10-30T10:56:46;26.00;99.90
7163;DHT22;3623;47.098;15.446;2022-10-30T10:59:16;26.00;99.90
7163;DHT22;3623;47.098;15.446;2022-10-30T11:01:49;25.90;99.90
7163;DHT22;3623;47.098;15.446;2022-10-30T11:04:27;25.70;99.90
7163;DHT22;3623;47.098;15.446;2022-10-30T11:06:57;26.20;99.90
7163;DHT22;3623;47.098;15.446;2022-10-30T11:09:27;26.60;99.90
7163;DHT22;3623;47.098;15.446;2022-10-30T11:11:56;27.40;99.90
7163;DHT22;3623;47.098;15.446;2022-10-30T11:14:27;27.10;99.90
7163;DHT22;3623;47.098;15.446;2022-10-30T11:17:04;27.50;99.90
7163;DHT22;3623;47.098;15.446;2022-10-30T11:19:36;27.50;99.90
7163;DHT22;3623;47.098;15.446;2022-10-30T11:22:11;27.80;99.90
7163;DHT22;3623;47.098;15.446;2022-10-30T11:24:43;28.40;99.90
7163;DHT22;3623;47.098;15.446;2022-10-30T11:27:24;28.70;99.90
7163;DHT22;3623;47.098;15.446;2022-10-30T11:29:55;29.20;99.90
7163;DHT22;3623;47.098;15.446;2022-10-30T11:32:26;29.40;99.40
7163;DHT22;3623;47.098;15.446;2022-10-30T11:35:01;29.70;99.90
7163;DHT22;3623;47.098;15.446;2022-10-30T11:37:29;30.50;98.20
7163;DHT22;3623;47.098;15.446;2022-10-30T11:40:05;30.60;97.70
7163;DHT22;3623;47.098;15.446;2022-10-30T11:42:35;30.50;98.60
7163;DHT22;3623;47.098;15.446;2022-10-30T11:45:04;30.90;96.30
7163;DHT22;3623;47.098;15.446;2022-10-30T11:47:34;30.80;96.50
7163;DHT22;3623;47.098;15.446;2022-10-30T11:50:03;31.30;96.40
7163;DHT22;3623;47.098;15.446;2022-10-30T11:52:36;31.60;94.80
7163;DHT22;3623;47.098;15.446;2022-10-30T11:55:10;32.10;95.00
7163;DHT22;3623;47.098;15.446;2022-10-30T11:57:43;32.40;94.60
7163;DHT22;3623;47.098;15.446;2022-10-30T12:00:15;31.80;92.90
7163;DHT22;3623;47.098;15.446;2022-10-30T12:02:44;32.40;92.60
7163;DHT22;3623;47.098;15.446;2022-10-30T12:05:34;32.60;91.50
7163;DHT22;3623;47.098;15.446;2022-10-30T12:08:17;32.20;92.20
7163;DHT22;3623;47.098;15.446;2022-10-30T12:10:47;32.50;92.40
7163;DHT22;3623;47.098;15.446;2022-10-30T12:13:22;32.30;90.80
7163;DHT22;3623;47.098;15.446;2022-10-30T12:16:03;32.50;90.80
7163;DHT22;3623;47.098;15.446;2022-10-30T12:18:32;31.70;91.10
7163;DHT22;3623;47.098;15.446;2022-10-30T12:21:01;32.20;89.30
7163;DHT22;3623;47.098;15.446;2022-10-30T12:23:28;32.20;90.50
7163;DHT22;3623;47.098;15.446;2022-10-30T12:25:58;32.70;90.20
7163;DHT22;3623;47.098;15.446;2022-10-30T12:28:29;32.50;86.80
7163;DHT22;3623;47.098;15.446;2022-10-30T12:31:01;31.40;89.20
7163;DHT22;3623;47.098;15.446;2022-10-30T12:33:33;31.10;90.20
7163;DHT22;3623;47.098;15.446;2022-10-30T12:36:04;31.90;90.40
7163;DHT22;3623;47.098;15.446;2022-10-30T12:38:34;32.20;87.10
7163;DHT22;3623;47.098;15.446;2022-10-30T12:41:07;32.20;88.40
7163;DHT22;3623;47.098;15.446;2022-10-30T12:43:41;31.60;90.10
7163;DHT22;3623;47.098;15.446;2022-10-30T12:46:28;31.30;86.10
7163;DHT22;3623;47.098;15.446;2022-10-30T12:49:04;30.50;89.30
7163;DHT22;3623;47.098;15.446;2022-10-30T12:51:37;30.70;88.50
7163;DHT22;3623;47.098;15.446;2022-10-30T12:54:08;31.30;89.30
7163;DHT22;3623;47.098;15.446;2022-10-30T12:56:43;31.50;87.40
7163;DHT22;3623;47.098;15.446;2022-10-30T12:59:24;30.70;85.20
7163;DHT22;3623;47.098;15.446;2022-10-30T13:01:56;29.80;86.00
7163;DHT22;3623;47.098;15.446;2022-10-30T13:04:27;29.10;88.50
7163;DHT22;3623;47.098;15.446;2022-10-30T13:06:59;28.90;90.60
7163;DHT22;3623;47.098;15.446;2022-10-30T13:09:34;28.10;91.40
7163;DHT22;3623;47.098;15.446;2022-10-30T13:12:05;27.50;90.90
7163;DHT22;3623;47.098;15.446;2022-10-30T13:14:41;27.10;90.60
7163;DHT22;3623;47.098;15.446;2022-10-30T13:17:10;26.80;91.90
7163;DHT22;3623;47.098;15.446;2022-10-30T13:19:39;26.50;92.10
7163;DHT22;3623;47.098;15.446;2022-10-30T13:22:11;26.30;93.40
7163;DHT22;3623;47.098;15.446;2022-10-30T13:24:47;26.10;94.10
7163;DHT22;3623;47.098;15.446;2022-10-30T13:27:19;25.90;94.50
7163;DHT22;3623;47.098;15.446;2022-10-30T13:29:55;25.70;95.30
7163;DHT22;3623;47.098;15.446;2022-10-30T13:32:34;25.30;94.30
7163;DHT22;3623;47.098;15.446;2022-10-30T13:35:14;25.00;94.90
7163;DHT22;3623;47.098;15.446;2022-10-30T13:37:45;24.70;95.70
7163;DHT22;3623;47.098;15.446;2022-10-30T13:40:21;24.50;94.80
7163;DHT22;3623;47.098;15.446;2022-10-30T13:42:57;24.30;95.20
7163;DHT22;3623;47.098;15.446;2022-10-30T13:45:53;24.20;95.00
7163;DHT22;3623;47.098;15.446;2022-10-30T13:48:31;24.00;95.50
7163;DHT22;3623;47.098;15.446;2022-10-30T13:51:23;23.90;96.20
7163;DHT22;3623;47.098;15.446;2022-10-30T13:54:02;23.70;95.60
7163;DHT22;3623;47.098;15.446;2022-10-30T13:56:31;23.60;95.10
7163;DHT22;3623;47.098;15.446;2022-10-30T13:59:06;23.50;95.60
7163;DHT22;3623;47.098;15.446;2022-10-30T14:01:41;23.40;96.40
7163;DHT22;3623;47.098;15.446;2022-10-30T14:04:14;23.30;97.10
7163;DHT22;3623;47.098;15.446;2022-10-30T14:06:49;23.20;97.80
7163;DHT22;3623;47.098;15.446;2022-10-30T14:09:25;23.10;97.60
7163;DHT22;3623;47.098;15.446;2022-10-30T14:11:54;23.00;97.90
7163;DHT22;3623;47.098;15.446;2022-10-30T14:14:27;22.90;97.80
7163;DHT22;3623;47.098;15.446;2022-10-30T14:17:13;22.80;98.20
7163;DHT22;3623;47.098;15.446;2022-10-30T14:20:20;22.70;98.30
7163;DHT22;3623;47.098;15.446;2022-10-30T14:23:06;22.60;98.60
7163;DHT22;3623;47.098;15.446;2022-10-30T14:25:33;22.50;99.30
7163;DHT22;3623;47.098;15.446;2022-10-30T14:28:01;22.30;99.90
7163;DHT22;3623;47.098;15.446;2022-10-30T14:30:28;22.20;99.90
7163;DHT22;3623;47.098;15.446;2022-10-30T14:32:56;22.20;99.90
7163;DHT22;3623;47.098;15.446;2022-10-30T14:35:31;22.10;99.90
7163;DHT22;3623;47.098;15.446;2022-10-30T14:38:14;22.00;99.90
7163;DHT22;3623;47.098;15.446;2022-10-30T14:40:48;21.90;99.90
7163;DHT22;3623;47.098;15.446;2022-10-30T14:43:26;21.70;99.90
7163;DHT22;3623;47.098;15.446;2022-10-30T14:46:00;21.60;99.90
7163;DHT22;3623;47.098;15.446;2022-10-30T14:48:34;21.60;99.90
7163;DHT22;3623;47.098;15.446;2022-10-30T14:51:11;21.30;99.90
7163;DHT22;3623;47.098;15.446;2022-10-30T14:53:50;21.20;99.90
7163;DHT22;3623;47.098;15.446;2022-10-30T14:56:28;21.10;99.90
7163;DHT22;3623;47.098;15.446;2022-10-30T14:59:19;21.00;99.90
7163;DHT22;3623;47.098;15.446;2022-10-30T15:01:54;20.90;99.90
7163;DHT22;3623;47.098;15.446;2022-10-30T15:04:34;20.90;99.90
7163;DHT22;3623;47.098;15.446;2022-10-30T15:07:10;20.80;99.90
7163;DHT22;3623;47.098;15.446;2022-10-30T15:09:49;20.70;99.90
7163;DHT22;3623;47.098;15.446;2022-10-30T15:12:41;20.60;99.90
7163;DHT22;3623;47.098;15.446;2022-10-30T15:15:13;20.50;99.90
7163;DHT22;3623;47.098;15.446;2022-10-30T15:17:43;20.40;99.90
7163;DHT22;3623;47.098;15.446;2022-10-30T15:20:17;20.30;99.90
7163;DHT22;3623;47.098;15.446;2022-10-30T15:22:46;20.10;99.90
7163;DHT22;3623;47.098;15.446;2022-10-30T15:25:17;20.00;99.90
7163;DHT22;3623;47.098;15.446;2022-10-30T15:27:46;19.90;99.90
7163;DHT22;3623;47.098;15.446;2022-10-30T15:30:17;19.80;99.90
7163;DHT22;3623;47.098;15.446;2022-10-30T15:32:44;19.80;99.90
7163;DHT22;3623;47.098;15.446;2022-10-30T15:35:16;19.70;99.90
7163;DHT22;3623;47.098;15.446;2022-10-30T15:38:00;19.70;99.90
7163;DHT22;3623;47.098;15.446;2022-10-30T15:40:28;19.60;99.90
7163;DHT22;3623;47.098;15.446;2022-10-30T15:42:56;19.50;99.90
7163;DHT22;3623;47.098;15.446;2022-10-30T15:45:28;19.50;99.90
7163;DHT22;3623;47.098;15.446;2022-10-30T15:47:59;19.40;99.90
7163;DHT22;3623;47.098;15.446;2022-10-30T15:50:29;19.30;99.90
7163;DHT22;3623;47.098;15.446;2022-10-30T15:52:57;19.20;99.90
7163;DHT22;3623;47.098;15.446;2022-10-30T15:55:27;19.20;99.90
7163;DHT22;3623;47.098;15.446;2022-10-30T15:57:57;19.10;99.90
7163;DHT22;3623;47.098;15.446;2022-10-30T16:00:27;19.10;99.90
7163;DHT22;3623;47.098;15.446;2022-10-30T16:03:00;19.00;99.90
7163;DHT22;3623;47.098;15.446;2022-10-30T16:05:29;19.00;99.90
7163;DHT22;3623;47.098;15.446;2022-10-30T16:07:58;18.90;99.90
7163;DHT22;3623;47.098;15.446;2022-10-30T16:10:30;18.80;99.90
7163;DHT22;3623;47.098;15.446;2022-10-30T16:12:59;18.80;99.90
7163;DHT22;3623;47.098;15.446;2022-10-30T16:15:28;18.70;99.90
7163;DHT22;3623;47.098;15.446;2022-10-30T16:18:14;18.70;99.90
7163;DHT22;3623;47.098;15.446;2022-10-30T16:20:46;18.70;99.90